Data for 08/05/2017

Time Sea-Level Adjusted Pressure Absolute Pressure Temperature Relative Humidity Dew Point   
(mb) (inHg) (mb) (inHg) (C) (F) (%) (C) (F)
00:05 1019 30.09 848 25.04 17.6 63.6 46 6 42.8
00:10 1019 30.09 848 25.04 17.5 63.4 47 6.1 43
00:15 1019 30.09 848 25.04 17.4 63.4 47 6 42.7
00:20 1019 30.09 848 25.04 17.4 63.2 47 6.1 43.1
00:25 1019 30.09 848 25.04 17.2 63 48 6.2 43.2
00:30 1019 30.09 848 25.04 17.1 62.7 50 6.5 43.7
00:35 1019 30.09 848 25.04 16.8 62.3 50 6.6 43.9
00:40 1019 30.09 849 25.07 16.6 61.9 52 6.8 44.2
00:45 1019 30.09 849 25.07 16.1 61.1 54 6.8 44.3
00:50 1019 30.09 849 25.07 15.8 60.4 55 6.9 44.4
00:55 1020 30.12 849 25.07 15.5 59.9 57 7.1 44.7
01:00 1020 30.12 849 25.07 15.3 59.5 58 7.1 44.8
01:05 1020 30.12 849 25.07 15.2 59.3 58 7.2 44.9
01:10 1020 30.12 849 25.07 15.1 59.1 59 7.2 44.9
01:15 1020 30.12 849 25.07 15 58.9 60 7.2 45
01:20 1020 30.12 849 25.07 14.8 58.7 60 7.3 45.1
01:25 1020 30.12 849 25.07 14.6 58.3 61 7.3 45.1
01:30 1020 30.12 849 25.07 14.5 58.2 62 7.3 45.1
01:35 1020 30.12 849 25.07 14.4 58 62 7.3 45.2
01:40 1020 30.12 849 25.07 14.3 57.8 63 7.4 45.2
01:45 1020 30.12 849 25.07 14.2 57.6 63 7.3 45.2
01:50 1020 30.12 849 25.07 14.2 57.5 63 7.4 45.3
01:55 1020 30.12 849 25.07 14.1 57.4 64 7.3 45.2
02:00 1020 30.12 849 25.07 14.1 57.3 64 7.3 45.2
02:05 1020 30.12 849 25.07 14 57.2 64 7.4 45.3
02:10 1020 30.12 849 25.07 14 57.1 64 7.4 45.3
02:15 1020 30.12 849 25.07 13.9 56.9 65 7.4 45.3
02:20 1020 30.12 849 25.07 13.8 56.9 65 7.4 45.3
02:25 1020 30.12 849 25.07 13.7 56.7 65 7.4 45.3
02:30 1020 30.12 849 25.07 13.7 56.6 65 7.3 45.2
02:35 1020 30.12 849 25.07 13.7 56.7 65 7.4 45.3
02:40 1020 30.12 849 25.07 13.7 56.6 65 7.4 45.2
02:45 1020 30.12 849 25.07 13.6 56.5 66 7.4 45.3
02:50 1020 30.12 849 25.07 13.5 56.2 66 7.4 45.3
02:55 1020 30.12 849 25.07 13.4 56.2 67 7.4 45.4
03:00 1020 30.12 849 25.07 13.3 55.9 68 7.5 45.4
03:05 1020 30.12 849 25.07 13.2 55.8 68 7.5 45.5
03:10 1020 30.12 849 25.07 13.2 55.7 68 7.5 45.5
03:15 1020 30.12 849 25.07 13.2 55.7 68 7.5 45.5
03:20 1020 30.12 849 25.07 13.2 55.7 68 7.5 45.5
03:25 1020 30.12 849 25.07 13.1 55.7 68 7.5 45.5
03:30 1020 30.12 849 25.07 13.1 55.6 69 7.5 45.5
03:35 1020 30.12 849 25.07 13.1 55.6 69 7.6 45.6
03:40 1020 30.12 849 25.07 13.1 55.5 69 7.6 45.6
03:45 1020 30.12 849 25.07 13.1 55.5 69 7.6 45.6
03:50 1020 30.12 849 25.07 13.1 55.6 69 7.6 45.6
03:55 1020 30.12 849 25.07 13.1 55.6 69 7.6 45.7
04:00 1020 30.12 849 25.07 13.1 55.5 69 7.6 45.7
04:05 1020 30.12 849 25.07 13 55.4 70 7.6 45.7
04:10 1020 30.12 849 25.07 12.9 55.2 70 7.6 45.7
04:15 1020 30.12 849 25.07 12.9 55.2 70 7.6 45.7
04:20 1020 30.12 849 25.07 12.9 55.1 70 7.6 45.7
04:25 1020 30.12 849 25.07 12.9 55.2 70 7.6 45.7
04:30 1020 30.12 849 25.07 12.8 55.1 71 7.7 45.9
04:35 1020 30.12 849 25.07 12.8 55 71 7.7 45.8
04:40 1020 30.12 849 25.07 12.8 55 71 7.7 45.9
04:45 1020 30.12 849 25.07 12.7 54.9 72 7.7 45.9
04:50 1020 30.12 849 25.07 12.5 54.5 73 7.8 46
04:55 1020 30.12 849 25.07 12.3 54.2 73 7.6 45.8
05:00 1020 30.12 849 25.07 12.3 54.1 73 7.6 45.6
05:05 1020 30.12 849 25.07 12.2 54 73 7.6 45.6
05:10 1020 30.12 849 25.07 12.2 54 73 7.5 45.5
05:15 1020 30.12 850 25.1 12.3 54.1 72 7.4 45.3
05:20 1020 30.12 850 25.1 12.2 54 71 7.2 45
05:25 1020 30.12 850 25.1 12.3 54.1 70 7.1 44.8
05:30 1020 30.12 850 25.1 12.4 54.4 70 7.1 44.8
05:35 1020 30.12 850 25.1 12.5 54.4 70 7.2 44.9
05:40 1020 30.12 850 25.1 12.5 54.5 69 7 44.6
05:45 1020 30.12 850 25.1 12.7 54.8 69 7.1 44.8
05:50 1020 30.12 850 25.1 12.7 54.9 69 7.2 44.9
05:55 1020 30.12 850 25.1 12.7 54.9 69 7.2 44.9
06:00 1020 30.12 850 25.1 12.8 55 69 7.2 45
06:05 1020 30.12 850 25.1 12.8 55.1 69 7.3 45.1
06:10 1020 30.12 850 25.1 12.9 55.2 67 7.1 44.8
06:15 1021 30.15 850 25.1 13 55.5 67 7.1 44.8
06:20 1021 30.15 850 25.1 13.1 55.5 67 7 44.7
06:25 1021 30.15 850 25.1 13.1 55.6 66 7 44.6
06:30 1021 30.15 850 25.1 13.1 55.5 67 7 44.6
06:35 1021 30.15 850 25.1 13.2 55.7 66 7 44.6
06:40 1021 30.15 850 25.1 13.3 55.9 66 7.1 44.7
06:45 1021 30.15 850 25.1 13.3 56 65 7 44.6
06:50 1021 30.15 850 25.1 13.5 56.3 67 7.4 45.4
06:55 1021 30.15 850 25.1 13.6 56.4 66 7.4 45.3
07:00 1021 30.15 850 25.1 13.7 56.7 66 7.5 45.6
07:05 1021 30.15 850 25.1 13.4 56 68 7.6 45.7
07:10 1021 30.15 850 25.1 13.1 55.5 68 7.4 45.4
07:15 1021 30.15 850 25.1 13.2 55.8 68 7.4 45.3
07:20 1021 30.15 850 25.1 13.4 56.1 68 7.6 45.6
07:25 1021 30.15 850 25.1 13.5 56.3 67 7.5 45.6
07:30 1021 30.15 850 25.1 13.7 56.7 65 7.3 45.2
07:35 1021 30.15 850 25.1 13.9 57.1 65 7.6 45.7
07:40 1021 30.15 850 25.1 14.1 57.4 64 7.4 45.3
07:45 1021 30.15 850 25.1 14.5 58.1 63 7.6 45.7
07:50 1021 30.15 850 25.1 14.7 58.5 61 7.4 45.3
07:55 1021 30.15 850 25.1 15.1 59.3 60 7.4 45.4
08:00 1021 30.15 850 25.1 15.5 59.9 59 7.5 45.6
08:05 1021 30.15 850 25.1 15.3 59.6 59 7.5 45.5
08:10 1021 30.15 850 25.1 15.8 60.4 58 7.5 45.5
08:15 1021 30.15 850 25.1 15.3 59.5 60 7.7 45.9
08:20 1021 30.15 850 25.1 15.3 59.5 58 7.1 44.8
08:25 1021 30.15 850 25.1 15.8 60.5 57 7.4 45.3
08:30 1021 30.15 850 25.1 15.7 60.3 58 7.5 45.6
08:35 1021 30.15 850 25.1 15.9 60.6 57 7.6 45.7
08:40 1021 30.15 850 25.1 16 60.8 57 7.6 45.8
08:45 1021 30.15 850 25.1 16.2 61.2 56 7.5 45.5
08:50 1021 30.15 850 25.1 16.6 61.9 54 7.4 45.4
08:55 1021 30.15 850 25.1 16.8 62.2 55 7.9 46.3
09:00 1021 30.15 850 25.1 16.5 61.6 55 7.5 45.6
09:05 1021 30.15 850 25.1 16.4 61.5 56 7.7 45.8
09:10 1021 30.15 850 25.1 16.4 61.4 56 7.6 45.8
09:15 1021 30.15 850 25.1 16.6 61.9 54 7.3 45.1
09:20 1021 30.15 850 25.1 16.7 62.1 54 7.4 45.3
09:25 1021 30.15 850 25.1 17.1 62.7 52 7.3 45.2
09:30 1021 30.15 850 25.1 16.9 62.4 55 7.9 46.1
09:35 1021 30.15 850 25.1 16.2 61.2 56 7.4 45.4
09:40 1021 30.15 850 25.1 16.8 62.2 54 7.4 45.3
09:45 1021 30.15 850 25.1 17.7 63.8 50 7.2 44.9
09:50 1021 30.15 850 25.1 17.8 64.1 50 7.5 45.5
09:55 1021 30.15 850 25.1 18.4 65.1 48 7.4 45.2
10:00 1021 30.15 850 25.1 18.9 66.1 47 7.4 45.2
10:05 1021 30.15 850 25.1 18.2 64.8 49 7.6 45.7
10:10 1021 30.15 850 25.1 17.7 63.9 50 7.2 45
10:15 1021 30.15 850 25.1 18.2 64.8 47 6.7 44.1
10:20 1021 30.15 850 25.1 18.6 65.4 47 7.1 44.7
10:25 1021 30.15 850 25.1 18.9 66.1 45 7 44.6
10:30 1021 30.15 850 25.1 19 66.3 46 7.4 45.3
10:35 1021 30.15 850 25.1 19.1 66.5 46 7.3 45.1
10:40 1021 30.15 850 25.1 19.6 67.3 44 7.1 44.7
10:45 1020 30.12 850 25.1 19.9 67.9 43 7.3 45.1
10:50 1020 30.12 850 25.1 19.5 67.1 46 7.6 45.6
10:55 1020 30.12 850 25.1 19.4 67 45 7.4 45.3
11:00 1020 30.12 850 25.1 19.1 66.5 45 7.2 45
11:05 1020 30.12 850 25.1 19 66.3 44 6.8 44.2
11:10 1020 30.12 849 25.07 19.5 67.1 42 6.5 43.7
11:15 1020 30.12 849 25.07 19.7 67.4 44 7.3 45.1
11:20 1020 30.12 849 25.07 19.7 67.5 41 6.3 43.3
11:25 1020 30.12 849 25.07 20.4 68.7 41 6.8 44.3
11:30 1020 30.12 849 25.07 20.5 68.9 43 7.6 45.7
11:35 1020 30.12 849 25.07 20.6 69 40 6.8 44.2
11:40 1020 30.12 849 25.07 20.4 68.7 41 6.9 44.3
11:45 1020 30.12 849 25.07 20.3 68.5 42 7.2 45
11:50 1020 30.12 849 25.07 20.7 69.3 40 7 44.5
11:55 1020 30.12 849 25.07 20.4 68.8 43 7.7 45.9
12:00 1020 30.12 849 25.07 20.3 68.6 41 6.9 44.4
12:05 1020 30.12 849 25.07 21.1 70.1 39 6.8 44.3
12:10 1020 30.12 849 25.07 20.7 69.2 42 7.3 45.2
12:15 1020 30.12 849 25.07 21.2 70.2 37 6.2 43.2
12:20 1020 30.12 849 25.07 20.7 69.2 43 7.8 46
12:25 1020 30.12 849 25.07 21 69.8 39 6.9 44.4
12:30 1020 30.12 849 25.07 21 69.8 40 7 44.7
12:35 1020 30.12 849 25.07 21.1 70 39 6.9 44.4
12:40 1020 30.12 849 25.07 21.7 71 38 7.1 44.7
12:45 1020 30.12 849 25.07 22.4 72.3 36 6.9 44.5
12:50 1020 30.12 849 25.07 22.1 71.7 38 7.3 45.2
12:55 1020 30.12 849 25.07 22.1 71.7 38 7.3 45.1
13:00 1020 30.12 849 25.07 21.8 71.2 36 6.4 43.5
13:05 1020 30.12 849 25.07 22.4 72.2 36 6.8 44.3
13:10 1020 30.12 849 25.07 22.9 73.2 34 6.5 43.6
13:15 1020 30.12 849 25.07 23.4 74.2 34 6.8 44.3
13:20 1020 30.12 849 25.07 22.9 73.1 35 6.7 44.1
13:25 1020 30.12 849 25.07 22.8 73 35 6.9 44.5
13:30 1020 30.12 849 25.07 22.7 72.8 36 6.8 44.3
13:35 1020 30.12 849 25.07 21.8 71.3 39 7.3 45.2
13:40 1020 30.12 849 25.07 22.2 71.9 36 6.4 43.5
13:45 1020 30.12 849 25.07 22.8 73.1 34 6.5 43.7
13:50 1020 30.12 849 25.07 23.1 73.6 34 6.7 44
13:55 1019 30.09 849 25.07 23.2 73.8 35 7.2 44.9
14:00 1019 30.09 849 25.07 23.4 74 35 7.2 44.9
14:05 1019 30.09 849 25.07 23.4 74.2 34 6.8 44.2
14:10 1019 30.09 849 25.07 23.4 74.1 36 7.6 45.7
14:15 1019 30.09 849 25.07 23.3 73.9 34 6.7 44.1
14:20 1019 30.09 849 25.07 24 75.1 32 6.6 43.9
14:25 1019 30.09 848 25.04 24.2 75.5 32 6.8 44.3
14:30 1019 30.09 848 25.04 23.6 74.5 35 7.5 45.5
14:35 1019 30.09 848 25.04 23.7 74.6 34 6.9 44.4
14:40 1019 30.09 848 25.04 23.6 74.6 33 6.7 44.1
14:45 1019 30.09 848 25.04 24.1 75.3 33 7 44.6
14:50 1019 30.09 848 25.04 23.3 73.9 35 7.2 44.9
14:55 1019 30.09 848 25.04 23.6 74.5 33 6.7 44
15:00 1019 30.09 848 25.04 23.8 74.8 34 7 44.6
15:05 1019 30.09 848 25.04 23.4 74.1 34 6.8 44.2
15:10 1019 30.09 848 25.04 23.4 74.1 33 6.5 43.8
15:15 1019 30.09 848 25.04 23.9 75 33 7.1 44.8
15:20 1019 30.09 848 25.04 23.9 75.1 34 7.2 44.9
15:25 1019 30.09 848 25.04 23.9 75.1 34 7.3 45.2
15:30 1019 30.09 848 25.04 23.8 74.8 34 7.2 44.9
15:35 1019 30.09 848 25.04 23.8 74.8 34 7.1 44.8
15:40 1019 30.09 848 25.04 23.6 74.5 34 6.9 44.4
15:45 1019 30.09 848 25.04 23.5 74.3 35 7.5 45.5
15:50 1019 30.09 848 25.04 23.5 74.4 34 6.9 44.4
15:55 1019 30.09 848 25.04 24 75.2 33 7.1 44.8
16:00 1019 30.09 848 25.04 23.8 74.9 34 7.2 44.9
16:05 1019 30.09 848 25.04 23.6 74.4 35 7.5 45.5
16:10 1019 30.09 848 25.04 23.6 74.4 35 7.2 45
16:15 1019 30.09 848 25.04 23.5 74.2 35 7.3 45.1
16:20 1019 30.09 848 25.04 23.3 74 35 7.1 44.7
16:25 1019 30.09 848 25.04 23.3 73.9 35 7.1 44.7
16:30 1019 30.09 848 25.04 23.6 74.5 35 7.4 45.3
16:35 1019 30.09 848 25.04 23.9 75 34 7.5 45.4
16:40 1019 30.09 848 25.04 23.9 74.9 34 7.1 44.8
16:45 1019 30.09 848 25.04 23.7 74.7 33 6.9 44.5
16:50 1019 30.09 848 25.04 23.5 74.2 35 7.3 45.1
16:55 1019 30.09 848 25.04 23.3 73.9 35 7 44.6
17:00 1019 30.09 848 25.04 23.2 73.7 35 7.2 44.9
17:05 1019 30.09 848 25.04 23.1 73.6 36 7.3 45.1
17:10 1019 30.09 848 25.04 23.2 73.7 34 6.8 44.3
17:15 1019 30.09 848 25.04 23.1 73.5 36 7.3 45.1
17:20 1019 30.09 848 25.04 22.8 73 36 7.3 45.1
17:25 1019 30.09 848 25.04 22.5 72.5 37 7.2 44.9
17:30 1019 30.09 848 25.04 22.3 72.1 37 7 44.7
17:35 1019 30.09 848 25.04 22.3 72.1 37 7 44.6
17:40 1019 30.09 849 25.07 22.3 72.2 37 7.3 45.2
17:45 1019 30.09 849 25.07 22 71.6 38 7.3 45.1
17:50 1019 30.09 849 25.07 21.7 71.1 39 7.2 45
17:55 1020 30.12 849 25.07 21.7 71 40 7.5 45.5
18:00 1020 30.12 849 25.07 21.4 70.4 41 7.7 45.8
18:05 1020 30.12 849 25.07 21 69.7 43 8 46.4
18:10 1020 30.12 849 25.07 20.5 69 44 8 46.3
18:15 1020 30.12 849 25.07 20.2 68.3 45 8 46.4
18:20 1020 30.12 849 25.07 19.9 67.7 45 7.8 46
18:25 1020 30.12 849 25.07 19.7 67.5 45 7.7 45.8
18:30 1020 30.12 849 25.07 19.6 67.4 45 7.7 45.8
18:35 1020 30.12 849 25.07 19.4 67 47 7.8 46.1
18:40 1020 30.12 849 25.07 19.2 66.6 47 7.6 45.7
18:45 1020 30.12 849 25.07 19 66.3 47 7.8 46
18:50 1020 30.12 849 25.07 18.9 66 48 7.8 46
18:55 1020 30.12 849 25.07 18.7 65.7 48 7.7 45.9
19:00 1020 30.12 849 25.07 18.5 65.3 49 7.7 45.8
19:05 1020 30.12 849 25.07 18.4 65 49 7.6 45.7
19:10 1020 30.12 850 25.1 18.2 64.8 50 7.8 46
19:15 1020 30.12 850 25.1 18.1 64.5 50 7.7 45.9
19:20 1020 30.12 850 25.1 18 64.4 50 7.5 45.5
19:25 1020 30.12 850 25.1 17.9 64.2 50 7.5 45.5
19:30 1021 30.15 850 25.1 17.8 64.1 51 7.5 45.5
19:35 1021 30.15 850 25.1 17.7 63.8 51 7.5 45.5
19:40 1021 30.15 850 25.1 17.6 63.6 51 7.5 45.4
19:45 1021 30.15 850 25.1 17.5 63.4 51 7.4 45.3
19:50 1021 30.15 850 25.1 17.4 63.3 51 7.3 45.2
19:55 1021 30.15 850 25.1 17.3 63.2 51 7.2 45
20:00 1021 30.15 850 25.1 17.2 63 51 7.2 45
20:05 1021 30.15 850 25.1 17.1 62.8 51 7.2 44.9
20:10 1021 30.15 850 25.1 17 62.7 52 7.2 44.9
20:15 1021 30.15 850 25.1 16.9 62.4 52 7.1 44.7
20:20 1021 30.15 850 25.1 16.8 62.3 52 7 44.6
20:25 1021 30.15 850 25.1 16.8 62.2 52 7 44.7
20:30 1021 30.15 850 25.1 16.7 62.1 52 7 44.5
20:35 1021 30.15 850 25.1 16.6 61.9 53 7 44.5
20:40 1021 30.15 850 25.1 16.6 61.8 52 6.9 44.4
20:45 1021 30.15 851 25.13 16.5 61.8 53 6.9 44.4
20:50 1021 30.15 851 25.13 16.4 61.6 53 6.9 44.4
20:55 1021 30.15 851 25.13 16.4 61.6 53 6.9 44.4
21:00 1022 30.18 851 25.13 16.4 61.4 53 6.9 44.4
21:05 1022 30.18 851 25.13 16.2 61.2 54 6.9 44.4
21:10 1022 30.18 851 25.13 16.1 61 54 6.9 44.4
21:15 1022 30.18 851 25.13 16 60.9 54 6.8 44.3
21:20 1022 30.18 851 25.13 16 60.7 54 6.9 44.4
21:25 1022 30.18 851 25.13 15.9 60.6 54 6.8 44.2
21:30 1022 30.18 851 25.13 15.8 60.5 54 6.7 44.1
21:35 1022 30.18 851 25.13 15.8 60.4 54 6.7 44.1
21:40 1022 30.18 851 25.13 15.7 60.2 54 6.5 43.7
21:45 1022 30.18 851 25.13 15.6 60.1 54 6.5 43.7
21:50 1022 30.18 851 25.13 15.5 59.9 55 6.5 43.7
21:55 1022 30.18 851 25.13 15.4 59.6 55 6.5 43.7
22:00 1022 30.18 851 25.13 15.2 59.4 56 6.5 43.7
22:05 1022 30.18 851 25.13 15.1 59.2 55 6.3 43.4
22:10 1022 30.18 851 25.13 15.1 59.2 55 6.3 43.4
22:15 1022 30.18 851 25.13 15.1 59.1 55 6.2 43.2
22:20 1022 30.18 851 25.13 15 59 55 6.2 43.2
22:25 1022 30.18 851 25.13 14.9 58.9 56 6.2 43.2
22:30 1022 30.18 851 25.13 14.8 58.6 56 6.3 43.3
22:35 1022 30.18 851 25.13 14.6 58.3 57 6.3 43.4
22:40 1022 30.18 851 25.13 14.5 58 58 6.2 43.2
22:45 1022 30.18 851 25.13 14.5 58.1 57 6.1 43
22:50 1022 30.18 851 25.13 14.6 58.2 57 6.1 43
22:55 1022 30.18 851 25.13 14.5 58.2 57 6.1 43
23:00 1022 30.18 852 25.16 14.4 58 57 6.1 43
23:05 1022 30.18 852 25.16 14.4 57.9 57 6.1 43
23:10 1022 30.18 852 25.16 14.3 57.7 58 6.1 43.1
23:15 1022 30.18 852 25.16 14.2 57.5 59 6.2 43.2
23:20 1022 30.18 852 25.16 14.1 57.3 59 6.2 43.1
23:25 1022 30.18 852 25.16 14 57.3 59 6.1 43
23:30 1022 30.18 852 25.16 14 57.2 59 6.2 43.2
23:35 1022 30.18 852 25.16 13.9 57 59 6.2 43.1
23:40 1022 30.18 852 25.16 13.9 57.1 59 6.2 43.1
23:45 1023 30.21 852 25.16 13.9 56.9 60 6.2 43.2
23:50 1023 30.21 852 25.16 13.7 56.6 60 6.2 43.1
23:55 1022 30.18 852 25.16 13.6 56.5 60 6.1 43
24:00 1023 30.21 852 25.16 13.5 56.4 61 6.1 43